sensor_id;sensor_type;location;lat;lon;timestamp;P1;durP1;ratioP1;P2;durP2;ratioP2
71162;SDS011;58858;50.948;6.566;2022-08-06T00:02:38;5.53;;;1.92;;
71162;SDS011;58858;50.948;6.566;2022-08-06T00:12:40;6.97;;;1.92;;
71162;SDS011;58858;50.948;6.566;2022-08-06T00:22:43;1.80;;;1.00;;
71162;SDS011;58858;50.948;6.566;2022-08-06T00:32:44;3.70;;;1.10;;
71162;SDS011;58858;50.948;6.566;2022-08-06T00:42:45;2.78;;;1.10;;
71162;SDS011;58858;50.948;6.566;2022-08-06T00:52:46;6.32;;;1.35;;
71162;SDS011;58858;50.948;6.566;2022-08-06T01:02:47;2.70;;;1.00;;
71162;SDS011;58858;50.948;6.566;2022-08-06T01:12:48;1.25;;;0.80;;
71162;SDS011;58858;50.948;6.566;2022-08-06T01:33:14;2.13;;;1.27;;
71162;SDS011;58858;50.948;6.566;2022-08-06T01:43:21;4.97;;;1.10;;
71162;SDS011;58858;50.948;6.566;2022-08-06T01:53:28;3.05;;;1.08;;
71162;SDS011;58858;50.948;6.566;2022-08-06T02:03:35;1.73;;;1.15;;
71162;SDS011;58858;50.948;6.566;2022-08-06T02:13:40;3.60;;;1.10;;
71162;SDS011;58858;50.948;6.566;2022-08-06T02:23:44;4.18;;;1.30;;
71162;SDS011;58858;50.948;6.566;2022-08-06T02:33:46;4.95;;;1.23;;
71162;SDS011;58858;50.948;6.566;2022-08-06T02:43:49;5.60;;;1.67;;
71162;SDS011;58858;50.948;6.566;2022-08-06T02:53:56;1.85;;;1.00;;
71162;SDS011;58858;50.948;6.566;2022-08-06T03:04:01;5.50;;;1.27;;
71162;SDS011;58858;50.948;6.566;2022-08-06T03:14:05;3.50;;;1.52;;
71162;SDS011;58858;50.948;6.566;2022-08-06T03:24:08;6.80;;;1.88;;
71162;SDS011;58858;50.948;6.566;2022-08-06T03:34:10;5.00;;;2.65;;
71162;SDS011;58858;50.948;6.566;2022-08-06T03:44:11;5.47;;;3.38;;
71162;SDS011;58858;50.948;6.566;2022-08-06T03:54:12;7.20;;;2.08;;
71162;SDS011;58858;50.948;6.566;2022-08-06T04:04:16;5.53;;;2.75;;
71162;SDS011;58858;50.948;6.566;2022-08-06T04:14:19;5.13;;;2.42;;
71162;SDS011;58858;50.948;6.566;2022-08-06T04:24:20;6.05;;;2.47;;
71162;SDS011;58858;50.948;6.566;2022-08-06T04:34:25;8.60;;;2.30;;
71162;SDS011;58858;50.948;6.566;2022-08-06T04:44:28;7.00;;;2.45;;
71162;SDS011;58858;50.948;6.566;2022-08-06T04:54:29;4.03;;;1.92;;
71162;SDS011;58858;50.948;6.566;2022-08-06T05:04:30;5.80;;;2.67;;
71162;SDS011;58858;50.948;6.566;2022-08-06T05:14:48;6.75;;;2.20;;
71162;SDS011;58858;50.948;6.566;2022-08-06T05:24:53;6.50;;;2.83;;
71162;SDS011;58858;50.948;6.566;2022-08-06T05:34:55;5.43;;;3.10;;
71162;SDS011;58858;50.948;6.566;2022-08-06T05:44:56;9.45;;;3.00;;
71162;SDS011;58858;50.948;6.566;2022-08-06T06:05:17;9.02;;;3.35;;
71162;SDS011;58858;50.948;6.566;2022-08-06T06:15:19;6.90;;;3.35;;
71162;SDS011;58858;50.948;6.566;2022-08-06T06:25:24;9.75;;;3.67;;
71162;SDS011;58858;50.948;6.566;2022-08-06T06:35:41;5.78;;;2.83;;
71162;SDS011;58858;50.948;6.566;2022-08-06T06:45:55;8.25;;;3.15;;
71162;SDS011;58858;50.948;6.566;2022-08-06T06:56:02;12.10;;;3.10;;
71162;SDS011;58858;50.948;6.566;2022-08-06T07:06:05;11.15;;;3.50;;
71162;SDS011;58858;50.948;6.566;2022-08-06T07:16:08;14.23;;;4.70;;
71162;SDS011;58858;50.948;6.566;2022-08-06T07:26:13;9.30;;;3.38;;
71162;SDS011;58858;50.948;6.566;2022-08-06T07:36:17;10.88;;;3.25;;
71162;SDS011;58858;50.948;6.566;2022-08-06T07:46:22;17.25;;;4.10;;
71162;SDS011;58858;50.948;6.566;2022-08-06T07:56:27;13.63;;;4.25;;
71162;SDS011;58858;50.948;6.566;2022-08-06T08:06:29;10.38;;;3.75;;
71162;SDS011;58858;50.948;6.566;2022-08-06T08:16:32;10.25;;;3.72;;
71162;SDS011;58858;50.948;6.566;2022-08-06T08:26:33;8.23;;;2.75;;
71162;SDS011;58858;50.948;6.566;2022-08-06T08:36:34;6.10;;;2.55;;
71162;SDS011;58858;50.948;6.566;2022-08-06T08:46:39;8.43;;;2.67;;
71162;SDS011;58858;50.948;6.566;2022-08-06T08:56:42;6.00;;;2.10;;
71162;SDS011;58858;50.948;6.566;2022-08-06T09:06:45;8.15;;;2.67;;
71162;SDS011;58858;50.948;6.566;2022-08-06T09:16:48;4.50;;;2.17;;
71162;SDS011;58858;50.948;6.566;2022-08-06T09:27:06;10.82;;;2.22;;
71162;SDS011;58858;50.948;6.566;2022-08-06T09:37:09;5.20;;;2.13;;
71162;SDS011;58858;50.948;6.566;2022-08-06T09:47:18;3.42;;;1.52;;
71162;SDS011;58858;50.948;6.566;2022-08-06T09:57:21;4.63;;;1.83;;
71162;SDS011;58858;50.948;6.566;2022-08-06T10:07:29;3.75;;;1.92;;
71162;SDS011;58858;50.948;6.566;2022-08-06T10:17:31;8.55;;;2.17;;
71162;SDS011;58858;50.948;6.566;2022-08-06T10:27:33;5.35;;;1.88;;
71162;SDS011;58858;50.948;6.566;2022-08-06T10:37:39;3.15;;;1.70;;
71162;SDS011;58858;50.948;6.566;2022-08-06T10:47:44;8.98;;;2.25;;
71162;SDS011;58858;50.948;6.566;2022-08-06T10:57:46;4.97;;;1.98;;
71162;SDS011;58858;50.948;6.566;2022-08-06T11:18:18;5.07;;;1.48;;
71162;SDS011;58858;50.948;6.566;2022-08-06T11:28:55;4.80;;;1.65;;
71162;SDS011;58858;50.948;6.566;2022-08-06T11:59:13;3.80;;;0.90;;
71162;SDS011;58858;50.948;6.566;2022-08-06T12:09:15;3.10;;;1.27;;
71162;SDS011;58858;50.948;6.566;2022-08-06T12:19:19;0.85;;;0.60;;
71162;SDS011;58858;50.948;6.566;2022-08-06T12:29:21;2.17;;;0.70;;
71162;SDS011;58858;50.948;6.566;2022-08-06T12:39:23;3.45;;;1.00;;
71162;SDS011;58858;50.948;6.566;2022-08-06T12:49:44;2.10;;;1.05;;
71162;SDS011;58858;50.948;6.566;2022-08-06T12:59:45;5.30;;;1.30;;
71162;SDS011;58858;50.948;6.566;2022-08-06T13:09:46;3.72;;;0.98;;
71162;SDS011;58858;50.948;6.566;2022-08-06T13:19:52;1.83;;;0.77;;
71162;SDS011;58858;50.948;6.566;2022-08-06T13:29:58;2.05;;;0.75;;
71162;SDS011;58858;50.948;6.566;2022-08-06T13:40:01;3.50;;;1.42;;
71162;SDS011;58858;50.948;6.566;2022-08-06T13:50:02;1.35;;;0.60;;
71162;SDS011;58858;50.948;6.566;2022-08-06T14:00:03;6.50;;;0.93;;
71162;SDS011;58858;50.948;6.566;2022-08-06T14:10:09;1.50;;;0.73;;
71162;SDS011;58858;50.948;6.566;2022-08-06T14:20:11;3.30;;;1.02;;
71162;SDS011;58858;50.948;6.566;2022-08-06T14:30:12;3.40;;;1.00;;
71162;SDS011;58858;50.948;6.566;2022-08-06T14:40:17;2.70;;;1.25;;
71162;SDS011;58858;50.948;6.566;2022-08-06T14:50:38;4.68;;;1.48;;
71162;SDS011;58858;50.948;6.566;2022-08-06T15:00:39;10.68;;;1.35;;
71162;SDS011;58858;50.948;6.566;2022-08-06T15:10:40;1.83;;;1.00;;
71162;SDS011;58858;50.948;6.566;2022-08-06T15:20:42;11.95;;;1.92;;
71162;SDS011;58858;50.948;6.566;2022-08-06T15:30:43;1.38;;;0.77;;
71162;SDS011;58858;50.948;6.566;2022-08-06T15:40:44;3.55;;;0.98;;
71162;SDS011;58858;50.948;6.566;2022-08-06T15:50:46;3.95;;;1.05;;
71162;SDS011;58858;50.948;6.566;2022-08-06T16:00:47;1.80;;;1.08;;
71162;SDS011;58858;50.948;6.566;2022-08-06T16:10:49;5.03;;;1.42;;
71162;SDS011;58858;50.948;6.566;2022-08-06T16:20:50;2.38;;;1.23;;
71162;SDS011;58858;50.948;6.566;2022-08-06T16:30:51;2.65;;;0.98;;
71162;SDS011;58858;50.948;6.566;2022-08-06T16:40:52;3.65;;;1.98;;
71162;SDS011;58858;50.948;6.566;2022-08-06T16:50:53;0.68;;;0.57;;
71162;SDS011;58858;50.948;6.566;2022-08-06T17:00:55;3.33;;;1.15;;
71162;SDS011;58858;50.948;6.566;2022-08-06T17:10:56;2.38;;;1.00;;
71162;SDS011;58858;50.948;6.566;2022-08-06T17:20:57;3.20;;;1.00;;
71162;SDS011;58858;50.948;6.566;2022-08-06T17:30:58;2.88;;;0.77;;
71162;SDS011;58858;50.948;6.566;2022-08-06T17:40:59;2.40;;;1.00;;
71162;SDS011;58858;50.948;6.566;2022-08-06T17:51:00;2.92;;;0.98;;
71162;SDS011;58858;50.948;6.566;2022-08-06T18:01:01;1.67;;;0.77;;
71162;SDS011;58858;50.948;6.566;2022-08-06T18:11:03;2.15;;;0.80;;
71162;SDS011;58858;50.948;6.566;2022-08-06T18:21:05;1.27;;;0.65;;
71162;SDS011;58858;50.948;6.566;2022-08-06T18:31:07;0.75;;;0.40;;
71162;SDS011;58858;50.948;6.566;2022-08-06T18:41:09;1.17;;;0.38;;
71162;SDS011;58858;50.948;6.566;2022-08-06T18:51:10;2.17;;;0.68;;
71162;SDS011;58858;50.948;6.566;2022-08-06T19:01:11;1.23;;;0.45;;
71162;SDS011;58858;50.948;6.566;2022-08-06T19:11:13;1.27;;;0.73;;
71162;SDS011;58858;50.948;6.566;2022-08-06T19:21:14;1.90;;;0.60;;
71162;SDS011;58858;50.948;6.566;2022-08-06T19:31:15;3.55;;;0.88;;
71162;SDS011;58858;50.948;6.566;2022-08-06T19:41:19;2.08;;;0.93;;
71162;SDS011;58858;50.948;6.566;2022-08-06T19:51:21;2.35;;;0.65;;
71162;SDS011;58858;50.948;6.566;2022-08-06T20:01:22;0.70;;;0.57;;
71162;SDS011;58858;50.948;6.566;2022-08-06T20:11:23;0.65;;;0.52;;
71162;SDS011;58858;50.948;6.566;2022-08-06T20:21:25;1.30;;;0.85;;
71162;SDS011;58858;50.948;6.566;2022-08-06T20:31:28;2.25;;;0.82;;
71162;SDS011;58858;50.948;6.566;2022-08-06T20:41:29;5.13;;;0.88;;
71162;SDS011;58858;50.948;6.566;2022-08-06T20:51:31;3.65;;;0.90;;
71162;SDS011;58858;50.948;6.566;2022-08-06T21:01:32;3.63;;;0.75;;
71162;SDS011;58858;50.948;6.566;2022-08-06T21:11:33;2.42;;;0.80;;
71162;SDS011;58858;50.948;6.566;2022-08-06T21:21:34;11.23;;;1.30;;
71162;SDS011;58858;50.948;6.566;2022-08-06T21:31:37;1.63;;;0.90;;
71162;SDS011;58858;50.948;6.566;2022-08-06T21:41:38;2.75;;;0.80;;
71162;SDS011;58858;50.948;6.566;2022-08-06T21:51:42;1.80;;;1.40;;
71162;SDS011;58858;50.948;6.566;2022-08-06T22:01:43;4.03;;;1.00;;
71162;SDS011;58858;50.948;6.566;2022-08-06T22:11:44;6.35;;;1.23;;
71162;SDS011;58858;50.948;6.566;2022-08-06T22:21:45;2.35;;;1.10;;
71162;SDS011;58858;50.948;6.566;2022-08-06T22:31:46;6.68;;;0.85;;
71162;SDS011;58858;50.948;6.566;2022-08-06T22:41:47;4.30;;;1.30;;
71162;SDS011;58858;50.948;6.566;2022-08-06T22:51:48;3.35;;;0.88;;
71162;SDS011;58858;50.948;6.566;2022-08-06T23:01:50;1.35;;;0.70;;
71162;SDS011;58858;50.948;6.566;2022-08-06T23:11:51;3.08;;;0.77;;
71162;SDS011;58858;50.948;6.566;2022-08-06T23:21:52;1.67;;;0.88;;
71162;SDS011;58858;50.948;6.566;2022-08-06T23:31:54;1.77;;;0.82;;
71162;SDS011;58858;50.948;6.566;2022-08-06T23:41:57;1.85;;;0.93;;
71162;SDS011;58858;50.948;6.566;2022-08-06T23:51:59;1.60;;;1.20;;
